Time;durP1;ratioP1;P1;durP2;ratioP2;P2;SDS_P1;SDS_P2;PMS_P1;PMS_P2;Temp;Humidity;BMP_temperature;BMP_pressure;BME280_temperature;BME280_humidity;BME280_pressure;Samples;Min_cycle;Max_cycle;Signal;HPM_P1;HPM_P2
2022/06/18 00:01:36;;;;;;;10.38;4.35;;;;;;;;;;5118282;28;20538;-50
2022/06/18 00:04:14;;;;;;;5.63;3.63;;;;;;;;;;5118376;28;20619;-47
2022/06/18 00:06:55;;;;;;;3.75;3.30;;;;;;;;;;5119095;27;20225;-49
2022/06/18 00:09:29;;;;;;;5.85;3.00;;;;;;;;;;5128313;27;20205;-48
2022/06/18 00:14:56;;;;;;;6.35;3.17;;;;;;;;;;5138277;27;20201;-48
2022/06/18 00:17:24;;;;;;;4.18;3.40;;;;;;;;;;5138338;27;20259;-48
2022/06/18 00:19:50;;;;;;;5.40;3.35;;;;;;;;;;5138343;27;20220;-49
2022/06/18 00:22:20;;;;;;;4.40;3.17;;;;;;;;;;5138533;27;20205;-48
2022/06/18 00:24:47;;;;;;;5.40;3.40;;;;;;;;;;5139077;27;20205;-48
2022/06/18 00:27:16;;;;;;;4.18;3.30;;;;;;;;;;5138601;27;20191;-50
2022/06/18 00:29:45;;;;;;;7.47;3.50;;;;;;;;;;5138140;27;20209;-49
2022/06/18 00:32:12;;;;;;;7.30;3.45;;;;;;;;;;5138033;27;20649;-49
2022/06/18 00:34:39;;;;;;;5.13;3.38;;;;;;;;;;5137820;27;20630;-47
2022/06/18 00:37:07;;;;;;;7.80;3.70;;;;;;;;;;5138332;27;20545;-49
2022/06/18 00:39:34;;;;;;;4.88;3.10;;;;;;;;;;5137402;27;20280;-48
2022/06/18 00:42:06;;;;;;;5.70;2.90;;;;;;;;;;5137932;27;20229;-49
2022/06/18 00:44:37;;;;;;;11.20;2.92;;;;;;;;;;5138484;27;20190;-50
2022/06/18 00:47:34;;;;;;;4.72;3.10;;;;;;;;;;5138345;27;20201;-49
2022/06/18 00:50:06;;;;;;;5.57;3.13;;;;;;;;;;5137203;27;20583;-49
2022/06/18 00:52:39;;;;;;;4.82;3.03;;;;;;;;;;5137785;27;20193;-49
2022/06/18 00:55:28;;;;;;;7.38;3.45;;;;;;;;;;5120815;27;20220;-48
2022/06/18 00:58:07;;;;;;;9.02;3.15;;;;;;;;;;5137438;27;20189;-49
2022/06/18 01:00:44;;;;;;;10.30;3.20;;;;;;;;;;5137052;27;20189;-49
2022/06/18 01:03:26;;;;;;;8.70;3.50;;;;;;;;;;5137420;27;20201;-47
2022/06/18 01:05:57;;;;;;;7.72;3.17;;;;;;;;;;5137162;27;20220;-48
2022/06/18 01:08:27;;;;;;;4.43;3.17;;;;;;;;;;5136846;27;20208;-47
2022/06/18 01:10:58;;;;;;;6.97;3.47;;;;;;;;;;5137070;27;20239;-49
2022/06/18 01:13:31;;;;;;;6.88;3.92;;;;;;;;;;5119818;27;20194;-48
2022/06/18 01:15:58;;;;;;;4.25;3.78;;;;;;;;;;5136461;27;20632;-48
2022/06/18 01:18:27;;;;;;;9.40;4.97;;;;;;;;;;5137088;27;20197;-48
2022/06/18 01:21:09;;;;;;;10.38;5.28;;;;;;;;;;5136225;27;20201;-49
2022/06/18 01:23:48;;;;;;;8.40;4.40;;;;;;;;;;5119137;27;20247;-48
2022/06/18 01:26:15;;;;;;;7.95;4.45;;;;;;;;;;5136156;27;20274;-48
2022/06/18 01:28:44;;;;;;;5.88;3.75;;;;;;;;;;5136398;27;20528;-47
2022/06/18 01:31:13;;;;;;;9.52;4.50;;;;;;;;;;5136805;27;20228;-49
2022/06/18 01:33:40;;;;;;;8.50;4.25;;;;;;;;;;5135764;27;20550;-50
2022/06/18 01:36:11;;;;;;;11.18;4.53;;;;;;;;;;5135738;27;20205;-49
2022/06/18 01:38:43;;;;;;;14.02;4.18;;;;;;;;;;5135989;27;20208;-49
2022/06/18 01:41:50;;;;;;;12.70;4.47;;;;;;;;;;5135567;27;20745;-53
2022/06/18 01:44:28;;;;;;;9.50;4.10;;;;;;;;;;5041476;28;20667;-49
2022/06/18 01:46:59;;;;;;;13.70;3.63;;;;;;;;;;5056261;28;20576;-49
2022/06/18 01:49:32;;;;;;;8.60;4.22;;;;;;;;;;5040613;28;20192;-50
2022/06/18 01:52:02;;;;;;;9.05;4.13;;;;;;;;;;5040595;28;20199;-49
2022/06/18 01:54:39;;;;;;;9.50;4.03;;;;;;;;;;5041015;28;20195;-50
2022/06/18 01:57:12;;;;;;;20.15;4.13;;;;;;;;;;5056835;28;20207;-48
2022/06/18 01:59:46;;;;;;;9.10;4.22;;;;;;;;;;5056779;28;20676;-49
2022/06/18 02:02:15;;;;;;;13.07;4.53;;;;;;;;;;5040355;28;20549;-48
2022/06/18 02:04:43;;;;;;;9.55;4.45;;;;;;;;;;5056615;28;20541;-49
2022/06/18 02:07:12;;;;;;;6.82;4.30;;;;;;;;;;5056474;28;20580;-49
2022/06/18 02:09:59;;;;;;;12.65;4.63;;;;;;;;;;5056917;28;20278;-49
2022/06/18 02:12:30;;;;;;;10.90;5.53;;;;;;;;;;5040199;28;20215;-49
2022/06/18 02:15:09;;;;;;;10.35;6.00;;;;;;;;;;5056881;28;20203;-48
2022/06/18 02:17:38;;;;;;;15.10;6.63;;;;;;;;;;5057143;27;20617;-48
2022/06/18 02:20:15;;;;;;;13.90;6.97;;;;;;;;;;5118125;27;20212;-48
2022/06/18 02:22:48;;;;;;;11.68;6.25;;;;;;;;;;5136187;27;20220;-48
2022/06/18 02:25:16;;;;;;;13.88;5.80;;;;;;;;;;5134969;27;20555;-49
2022/06/18 02:27:44;;;;;;;11.90;6.57;;;;;;;;;;5135038;27;20212;-47
2022/06/18 02:30:20;;;;;;;17.40;6.47;;;;;;;;;;5134993;27;20530;-47
2022/06/18 02:33:28;;;;;;;9.38;6.22;;;;;;;;;;5135614;27;20205;-47
2022/06/18 02:36:03;;;;;;;10.00;5.85;;;;;;;;;;5136100;27;20234;-48
2022/06/18 02:38:30;;;;;;;12.02;6.85;;;;;;;;;;5135004;27;20189;-48
2022/06/18 02:40:57;;;;;;;11.10;6.03;;;;;;;;;;5135759;27;20233;-47
2022/06/18 02:43:24;;;;;;;13.07;6.70;;;;;;;;;;5135669;27;20355;-48
2022/06/18 02:45:53;;;;;;;15.52;6.40;;;;;;;;;;5135115;28;20229;-47
2022/06/18 02:48:23;;;;;;;9.98;6.47;;;;;;;;;;5136272;27;20198;-47
2022/06/18 02:50:50;;;;;;;11.07;6.55;;;;;;;;;;5135077;28;20544;-48
2022/06/18 02:53:18;;;;;;;11.23;6.30;;;;;;;;;;5135085;28;20205;-48
2022/06/18 02:55:49;;;;;;;11.38;6.10;;;;;;;;;;5135101;28;20221;-48
2022/06/18 02:58:21;;;;;;;12.32;6.40;;;;;;;;;;5138443;27;20633;-48
2022/06/18 03:01:10;;;;;;;14.95;6.57;;;;;;;;;;5140607;27;20189;-48
2022/06/18 03:03:40;;;;;;;14.23;8.15;;;;;;;;;;5140112;27;20197;-49
2022/06/18 03:06:08;;;;;;;14.15;7.10;;;;;;;;;;5140050;27;20244;-50
2022/06/18 03:08:36;;;;;;;10.73;7.00;;;;;;;;;;5139207;27;20197;-47
2022/06/18 03:13:52;;;;;;;12.75;6.60;;;;;;;;;;5138915;27;20182;-48
2022/06/18 03:16:19;;;;;;;19.50;7.13;;;;;;;;;;5139048;27;20215;-49
2022/06/18 03:18:49;;;;;;;11.65;6.80;;;;;;;;;;5138995;27;20531;-49
2022/06/18 03:21:48;;;;;;;14.77;7.05;;;;;;;;;;5138799;27;20253;-48
2022/06/18 03:24:15;;;;;;;17.20;6.75;;;;;;;;;;5121815;27;20606;-50
2022/06/18 03:26:42;;;;;;;12.80;6.90;;;;;;;;;;5138725;27;20229;-48
2022/06/18 03:29:14;;;;;;;15.20;6.63;;;;;;;;;;5139389;27;20625;-48
2022/06/18 03:31:41;;;;;;;15.48;6.72;;;;;;;;;;5139443;27;20634;-49
2022/06/18 03:34:10;;;;;;;14.73;7.22;;;;;;;;;;5138855;27;20217;-49
2022/06/18 03:36:37;;;;;;;16.48;7.40;;;;;;;;;;5138548;27;20656;-48
2022/06/18 03:39:05;;;;;;;13.68;7.28;;;;;;;;;;5138447;27;20202;-49
2022/06/18 03:41:33;;;;;;;15.38;7.38;;;;;;;;;;5121415;27;20732;-47
2022/06/18 03:44:00;;;;;;;12.10;6.90;;;;;;;;;;5138893;27;20212;-48
2022/06/18 03:46:30;;;;;;;10.60;6.72;;;;;;;;;;5138231;27;20269;-47
2022/06/18 03:49:00;;;;;;;11.30;6.93;;;;;;;;;;5138234;27;20536;-48
2022/06/18 03:51:33;;;;;;;10.82;6.93;;;;;;;;;;5138171;27;20621;-50
2022/06/18 03:54:02;;;;;;;11.15;6.70;;;;;;;;;;5125230;27;20645;-48
2022/06/18 03:56:31;;;;;;;10.52;6.63;;;;;;;;;;5116846;28;20198;-50
2022/06/18 03:59:00;;;;;;;8.00;6.32;;;;;;;;;;5116659;28;20206;-51
2022/06/18 04:01:31;;;;;;;10.05;6.38;;;;;;;;;;5117719;28;20541;-47
2022/06/18 04:04:02;;;;;;;9.57;6.75;;;;;;;;;;5117867;27;20234;-50
2022/06/18 04:06:39;;;;;;;12.43;7.40;;;;;;;;;;5134334;27;20234;-47
2022/06/18 04:09:36;;;;;;;8.63;6.22;;;;;;;;;;5095670;27;20299;-49
2022/06/18 04:12:07;;;;;;;10.27;6.57;;;;;;;;;;5137818;27;20640;-48
2022/06/18 04:14:55;;;;;;;10.43;6.53;;;;;;;;;;5131223;27;20207;-47
2022/06/18 04:17:33;;;;;;;10.00;6.38;;;;;;;;;;5138345;27;20209;-49
2022/06/18 04:20:00;;;;;;;9.63;6.60;;;;;;;;;;5155057;27;20197;-48
2022/06/18 04:22:28;;;;;;;9.90;6.43;;;;;;;;;;5137513;27;20630;-48
2022/06/18 04:25:03;;;;;;;7.45;5.85;;;;;;;;;;5137853;27;20536;-52
2022/06/18 04:27:30;;;;;;;8.60;7.03;;;;;;;;;;5130736;27;20287;-48
2022/06/18 04:29:57;;;;;;;11.30;6.32;;;;;;;;;;5117024;28;20225;-48
2022/06/18 04:32:43;;;;;;;9.38;6.93;;;;;;;;;;5117140;28;20271;-48
2022/06/18 04:35:12;;;;;;;8.57;6.55;;;;;;;;;;5116885;28;20210;-48
2022/06/18 04:37:44;;;;;;;10.65;7.07;;;;;;;;;;5117811;28;20202;-48
2022/06/18 04:40:31;;;;;;;9.40;6.32;;;;;;;;;;5117858;28;20194;-48
2022/06/18 04:43:24;;;;;;;8.25;6.82;;;;;;;;;;5116874;28;20201;-49
2022/06/18 04:45:54;;;;;;;15.27;6.75;;;;;;;;;;5116539;28;20202;-49
2022/06/18 04:48:23;;;;;;;10.70;7.03;;;;;;;;;;5116884;28;20198;-47
2022/06/18 04:50:52;;;;;;;7.50;6.50;;;;;;;;;;5116629;28;20202;-49
2022/06/18 04:53:19;;;;;;;8.95;6.53;;;;;;;;;;5115712;28;20212;-52
2022/06/18 04:55:52;;;;;;;11.13;7.03;;;;;;;;;;5098816;28;20217;-48
2022/06/18 04:58:19;;;;;;;8.20;6.22;;;;;;;;;;5115505;28;20309;-47
2022/06/18 05:00:54;;;;;;;8.35;6.85;;;;;;;;;;5098578;28;20524;-49
2022/06/18 05:03:37;;;;;;;7.63;6.40;;;;;;;;;;5084274;28;20633;-48
2022/06/18 05:06:25;;;;;;;9.18;6.65;;;;;;;;;;5114943;28;20278;-49
2022/06/18 05:09:11;;;;;;;9.32;6.78;;;;;;;;;;5115434;28;20543;-48
2022/06/18 05:12:08;;;;;;;9.40;6.32;;;;;;;;;;5102215;28;20286;-48
2022/06/18 05:15:16;;;;;;;8.23;5.60;;;;;;;;;;5115170;28;20221;-49
2022/06/18 05:17:45;;;;;;;8.25;5.40;;;;;;;;;;5098309;28;20202;-47
2022/06/18 05:20:19;;;;;;;6.95;5.72;;;;;;;;;;5097694;28;20213;-47
2022/06/18 05:22:51;;;;;;;7.80;5.10;;;;;;;;;;5097872;28;20210;-47
2022/06/18 05:25:19;;;;;;;8.65;4.30;;;;;;;;;;5113271;28;20202;-47
2022/06/18 05:27:47;;;;;;;6.55;3.97;;;;;;;;;;5116333;28;20606;-47
2022/06/18 05:30:25;;;;;;;6.00;4.03;;;;;;;;;;5115755;28;20198;-48
2022/06/18 05:32:56;;;;;;;5.05;3.85;;;;;;;;;;5115989;28;20202;-48
2022/06/18 05:35:25;;;;;;;5.20;3.63;;;;;;;;;;5115573;28;20210;-48
2022/06/18 05:37:52;;;;;;;4.35;3.10;;;;;;;;;;5115625;28;20209;-47
2022/06/18 05:40:20;;;;;;;4.32;3.08;;;;;;;;;;5115482;28;20205;-47
2022/06/18 05:42:48;;;;;;;5.68;3.58;;;;;;;;;;5120664;27;20262;-49
2022/06/18 05:45:15;;;;;;;5.60;3.47;;;;;;;;;;5136943;27;20212;-49
2022/06/18 05:47:42;;;;;;;3.78;2.65;;;;;;;;;;5136063;27;20282;-47
2022/06/18 05:50:13;;;;;;;4.00;2.80;;;;;;;;;;5135761;27;20201;-48
2022/06/18 05:52:42;;;;;;;6.15;3.60;;;;;;;;;;5132749;27;20206;-49
2022/06/18 05:55:28;;;;;;;5.45;3.00;;;;;;;;;;5132771;27;20185;-55
2022/06/18 05:58:20;;;;;;;6.85;3.00;;;;;;;;;;5132345;27;20530;-52
2022/06/18 06:00:50;;;;;;;6.85;3.38;;;;;;;;;;5134498;27;20193;-49
2022/06/18 06:03:17;;;;;;;4.82;2.90;;;;;;;;;;5134251;27;20205;-51
2022/06/18 06:05:44;;;;;;;4.07;1.95;;;;;;;;;;5134017;27;20228;-53
2022/06/18 06:08:13;;;;;;;4.85;2.70;;;;;;;;;;5132860;27;20238;-48
2022/06/18 06:13:27;;;;;;;5.90;2.53;;;;;;;;;;5128526;27;20221;-49
2022/06/18 06:15:55;;;;;;;2.95;2.33;;;;;;;;;;5132814;27;20257;-54
2022/06/18 06:18:28;;;;;;;7.45;3.00;;;;;;;;;;5129135;27;20221;-52
2022/06/18 06:20:56;;;;;;;4.82;2.85;;;;;;;;;;5133526;27;20233;-53
2022/06/18 06:23:23;;;;;;;4.38;2.83;;;;;;;;;;5131280;27;20221;-51
2022/06/18 06:25:51;;;;;;;3.08;1.92;;;;;;;;;;5129037;27;20579;-49
2022/06/18 06:28:24;;;;;;;7.63;2.15;;;;;;;;;;5131785;27;20251;-49
2022/06/18 06:30:52;;;;;;;3.22;2.00;;;;;;;;;;5129416;27;20567;-49
2022/06/18 06:33:20;;;;;;;3.17;1.77;;;;;;;;;;5129614;27;20235;-50
2022/06/18 06:35:48;;;;;;;3.95;2.03;;;;;;;;;;5119985;27;20554;-52
2022/06/18 06:38:15;;;;;;;4.78;2.25;;;;;;;;;;5114542;28;20226;-48
2022/06/18 06:40:43;;;;;;;3.10;2.13;;;;;;;;;;5115856;27;20222;-50
2022/06/18 06:43:13;;;;;;;2.83;2.00;;;;;;;;;;5134782;27;20225;-49
2022/06/18 06:45:40;;;;;;;1.77;1.58;;;;;;;;;;5135180;27;20225;-49
2022/06/18 06:48:08;;;;;;;6.50;2.50;;;;;;;;;;5134974;27;20235;-52
2022/06/18 06:50:35;;;;;;;4.00;1.70;;;;;;;;;;5132722;27;20256;-49
2022/06/18 06:53:02;;;;;;;7.68;2.10;;;;;;;;;;5115750;28;20225;-48
2022/06/18 06:58:21;;;;;;;2.63;2.03;;;;;;;;;;5133843;27;20696;-53
2022/06/18 07:00:53;;;;;;;3.13;2.00;;;;;;;;;;5134286;27;20530;-50
2022/06/18 07:03:25;;;;;;;3.45;1.85;;;;;;;;;;5134929;27;20225;-50
2022/06/18 07:05:52;;;;;;;3.53;2.25;;;;;;;;;;5133612;28;20700;-51
2022/06/18 07:08:19;;;;;;;4.13;1.70;;;;;;;;;;5135166;27;20241;-49
2022/06/18 07:10:49;;;;;;;4.35;2.00;;;;;;;;;;5134727;27;20217;-53
2022/06/18 07:13:18;;;;;;;3.08;2.08;;;;;;;;;;5134775;27;20232;-50
2022/06/18 07:15:45;;;;;;;2.60;1.60;;;;;;;;;;5098667;28;20693;-53
2022/06/18 07:18:21;;;;;;;4.60;2.22;;;;;;;;;;5134147;28;20221;-51
2022/06/18 07:20:48;;;;;;;5.25;2.15;;;;;;;;;;5134693;27;20236;-53
2022/06/18 07:23:15;;;;;;;3.35;1.55;;;;;;;;;;5134994;27;20236;-51
2022/06/18 07:25:43;;;;;;;6.57;2.00;;;;;;;;;;5134691;27;20236;-50
2022/06/18 07:28:10;;;;;;;5.50;1.50;;;;;;;;;;5134000;27;20237;-54
2022/06/18 07:30:37;;;;;;;2.33;1.40;;;;;;;;;;5133718;27;20587;-47
2022/06/18 07:33:05;;;;;;;3.63;1.13;;;;;;;;;;5133819;28;20549;-50
2022/06/18 07:35:37;;;;;;;3.63;1.60;;;;;;;;;;5134610;27;20217;-52
2022/06/18 07:38:03;;;;;;;19.20;3.28;;;;;;;;;;5134748;27;20238;-49
2022/06/18 07:40:47;;;;;;;7.78;2.00;;;;;;;;;;5130931;27;20218;-54
2022/06/18 07:43:18;;;;;;;5.10;1.77;;;;;;;;;;5119692;27;20665;-50
2022/06/18 07:45:46;;;;;;;10.38;2.95;;;;;;;;;;5136455;27;20221;-51
2022/06/18 07:48:14;;;;;;;9.30;1.80;;;;;;;;;;5138569;27;20280;-49
2022/06/18 07:50:43;;;;;;;4.50;1.67;;;;;;;;;;5138148;27;20233;-50
2022/06/18 07:53:16;;;;;;;6.60;2.35;;;;;;;;;;5134164;27;20693;-50
2022/06/18 07:55:43;;;;;;;5.45;1.60;;;;;;;;;;5127558;27;20202;-52
2022/06/18 07:58:10;;;;;;;17.67;1.70;;;;;;;;;;5118086;28;20213;-51
2022/06/18 08:00:42;;;;;;;5.82;1.42;;;;;;;;;;5118389;28;20210;-52
2022/06/18 08:03:11;;;;;;;2.80;1.20;;;;;;;;;;5117786;28;20194;-53
2022/06/18 08:05:38;;;;;;;3.00;1.50;;;;;;;;;;5122676;27;20205;-52
2022/06/18 08:08:06;;;;;;;5.32;1.40;;;;;;;;;;5137318;27;20293;-50
2022/06/18 08:10:53;;;;;;;3.28;1.35;;;;;;;;;;5138299;27;20205;-51
2022/06/18 08:13:21;;;;;;;3.33;1.58;;;;;;;;;;5138417;27;20197;-50
2022/06/18 08:15:48;;;;;;;3.50;1.50;;;;;;;;;;5138217;27;20201;-48
2022/06/18 08:18:15;;;;;;;4.22;1.38;;;;;;;;;;5138325;27;20193;-49
2022/06/18 08:21:03;;;;;;;4.00;1.77;;;;;;;;;;5138482;27;20193;-48
2022/06/18 08:23:30;;;;;;;3.63;1.63;;;;;;;;;;5136252;27;20650;-48
2022/06/18 08:25:57;;;;;;;3.88;1.65;;;;;;;;;;5136825;27;20575;-49
2022/06/18 08:28:24;;;;;;;3.30;1.80;;;;;;;;;;5136537;27;20236;-53
2022/06/18 08:30:51;;;;;;;4.43;1.73;;;;;;;;;;5135923;27;20204;-52
2022/06/18 08:33:18;;;;;;;2.90;1.50;;;;;;;;;;5136855;27;20228;-51
2022/06/18 08:35:45;;;;;;;5.75;1.77;;;;;;;;;;5136611;27;20193;-50
2022/06/18 08:38:13;;;;;;;2.67;1.60;;;;;;;;;;5136741;27;20206;-51
2022/06/18 08:41:17;;;;;;;3.00;1.60;;;;;;;;;;5118779;27;20198;-54
2022/06/18 08:44:06;;;;;;;6.30;1.67;;;;;;;;;;5100261;27;20225;-53
2022/06/18 08:46:48;;;;;;;2.38;1.42;;;;;;;;;;5132069;27;20256;-51
2022/06/18 08:49:31;;;;;;;2.58;1.42;;;;;;;;;;5133070;27;20225;-50
2022/06/18 08:52:17;;;;;;;5.13;1.58;;;;;;;;;;5136689;27;20711;-52
2022/06/18 08:55:10;;;;;;;3.35;1.60;;;;;;;;;;5130447;27;20232;-53
2022/06/18 08:57:39;;;;;;;4.47;1.60;;;;;;;;;;5115823;28;20222;-51
2022/06/18 09:00:16;;;;;;;4.05;1.30;;;;;;;;;;5114943;28;20226;-49
2022/06/18 09:02:54;;;;;;;4.25;1.48;;;;;;;;;;5116708;28;20237;-49
2022/06/18 09:05:47;;;;;;;5.85;1.85;;;;;;;;;;5116344;28;20812;-56
2022/06/18 09:08:33;;;;;;;6.63;1.77;;;;;;;;;;5116191;28;20233;-52
2022/06/18 09:11:22;;;;;;;4.68;1.80;;;;;;;;;;5116094;28;20241;-50
2022/06/18 09:14:07;;;;;;;3.72;1.73;;;;;;;;;;5115661;28;20229;-52
2022/06/18 09:16:41;;;;;;;3.40;1.63;;;;;;;;;;5115528;28;20667;-53
2022/06/18 09:19:12;;;;;;;4.20;1.60;;;;;;;;;;5115038;28;20229;-52
2022/06/18 09:21:48;;;;;;;4.15;1.45;;;;;;;;;;5115337;28;20286;-51
2022/06/18 09:24:23;;;;;;;3.17;1.45;;;;;;;;;;5115943;28;20244;-52
2022/06/18 09:26:55;;;;;;;5.05;1.27;;;;;;;;;;5116067;28;20233;-54
2022/06/18 09:29:26;;;;;;;3.17;1.60;;;;;;;;;;5125196;27;20370;-56
2022/06/18 09:31:59;;;;;;;3.85;1.50;;;;;;;;;;5136511;27;20233;-53
2022/06/18 09:34:43;;;;;;;4.40;1.70;;;;;;;;;;5135395;27;20224;-50
2022/06/18 09:37:16;;;;;;;4.10;1.58;;;;;;;;;;5135502;27;20233;-51
2022/06/18 09:39:46;;;;;;;6.38;1.90;;;;;;;;;;5134157;27;20221;-54
2022/06/18 09:42:40;;;;;;;4.60;1.70;;;;;;;;;;5134707;27;20680;-54
2022/06/18 09:45:13;;;;;;;2.60;1.52;;;;;;;;;;5133964;27;20256;-48
2022/06/18 09:47:46;;;;;;;2.97;1.88;;;;;;;;;;5135439;27;20225;-50
2022/06/18 09:50:18;;;;;;;3.80;1.50;;;;;;;;;;5135841;27;20221;-49
2022/06/18 09:52:49;;;;;;;3.75;1.70;;;;;;;;;;5135539;27;20225;-57
2022/06/18 09:55:20;;;;;;;3.03;1.70;;;;;;;;;;5135865;27;20236;-58
2022/06/18 09:57:53;;;;;;;3.95;1.80;;;;;;;;;;5123509;27;20225;-48
2022/06/18 10:00:24;;;;;;;4.20;2.05;;;;;;;;;;5115927;28;20201;-49
2022/06/18 10:02:57;;;;;;;11.38;1.70;;;;;;;;;;5119272;27;20193;-58
2022/06/18 10:08:13;;;;;;;3.75;1.70;;;;;;;;;;5115332;28;20266;-55
2022/06/18 10:10:47;;;;;;;4.68;1.95;;;;;;;;;;5132231;27;20254;-58
2022/06/18 10:13:18;;;;;;;6.22;2.33;;;;;;;;;;5133876;27;20189;-56
2022/06/18 10:15:46;;;;;;;4.63;2.08;;;;;;;;;;5135801;27;20490;-49
2022/06/18 10:18:32;;;;;;;4.32;2.25;;;;;;;;;;5136193;27;20201;-58
2022/06/18 10:21:09;;;;;;;5.78;2.63;;;;;;;;;;5136272;27;20185;-47
2022/06/18 10:23:58;;;;;;;4.63;2.25;;;;;;;;;;5132783;27;20703;-51
2022/06/18 10:26:37;;;;;;;3.22;2.22;;;;;;;;;;5136180;27;20664;-56
2022/06/18 10:29:11;;;;;;;4.80;2.50;;;;;;;;;;5135370;27;20201;-51
2022/06/18 10:31:54;;;;;;;11.48;3.25;;;;;;;;;;5136059;27;20200;-57
2022/06/18 10:34:28;;;;;;;8.05;2.60;;;;;;;;;;5136258;27;20280;-50
2022/06/18 10:37:10;;;;;;;9.18;3.45;;;;;;;;;;5136044;27;20205;-49
2022/06/18 10:40:12;;;;;;;4.75;2.58;;;;;;;;;;5115585;27;20224;-49
2022/06/18 10:43:32;;;;;;;8.35;2.30;;;;;;;;;;5135073;28;20239;-48
2022/06/18 10:46:08;;;;;;;6.15;2.22;;;;;;;;;;5053091;28;20231;-51
2022/06/18 10:48:37;;;;;;;3.92;2.47;;;;;;;;;;5052877;28;20664;-50
2022/06/18 10:51:14;;;;;;;2.80;2.35;;;;;;;;;;5053044;28;20226;-48
2022/06/18 10:53:54;;;;;;;4.47;2.20;;;;;;;;;;5052673;28;20207;-49
2022/06/18 10:56:27;;;;;;;6.47;2.08;;;;;;;;;;5053001;28;20241;-50
2022/06/18 10:59:01;;;;;;;5.18;2.30;;;;;;;;;;5052959;28;20613;-50
2022/06/18 11:01:38;;;;;;;4.70;1.85;;;;;;;;;;5052978;28;20697;-48
2022/06/18 11:04:22;;;;;;;4.68;2.15;;;;;;;;;;5053119;28;20204;-48
2022/06/18 11:06:53;;;;;;;6.75;2.30;;;;;;;;;;5052981;28;20218;-49
2022/06/18 11:09:34;;;;;;;4.18;1.83;;;;;;;;;;5052924;28;20229;-48
2022/06/18 11:12:06;;;;;;;4.60;2.08;;;;;;;;;;5051964;28;20199;-48
2022/06/18 11:14:40;;;;;;;4.65;1.90;;;;;;;;;;5052643;28;20262;-47
2022/06/18 11:17:22;;;;;;;3.42;1.83;;;;;;;;;;5052917;28;20683;-52
2022/06/18 11:19:49;;;;;;;6.90;2.17;;;;;;;;;;5048881;28;20216;-51
2022/06/18 11:22:25;;;;;;;3.17;2.00;;;;;;;;;;5115940;27;20247;-47
2022/06/18 11:24:56;;;;;;;3.67;1.52;;;;;;;;;;5131481;27;20289;-48
2022/06/18 11:27:24;;;;;;;2.95;1.77;;;;;;;;;;5136891;27;20480;-51
2022/06/18 11:29:52;;;;;;;3.60;2.30;;;;;;;;;;5136966;27;20256;-48
2022/06/18 11:32:24;;;;;;;4.35;2.00;;;;;;;;;;5135853;27;20225;-50
2022/06/18 11:35:03;;;;;;;6.45;2.17;;;;;;;;;;5137041;27;20354;-49
2022/06/18 11:37:31;;;;;;;3.70;2.33;;;;;;;;;;5137574;27;20573;-54
2022/06/18 11:40:03;;;;;;;6.47;2.40;;;;;;;;;;5136605;27;20269;-52
2022/06/18 11:42:35;;;;;;;5.82;2.60;;;;;;;;;;5136701;27;20636;-54
2022/06/18 11:45:03;;;;;;;6.90;2.28;;;;;;;;;;5135175;27;20281;-50
2022/06/18 11:47:36;;;;;;;5.30;2.30;;;;;;;;;;5137185;27;20232;-52
2022/06/18 11:50:20;;;;;;;4.00;1.92;;;;;;;;;;5137103;27;20186;-50
2022/06/18 11:53:09;;;;;;;4.50;2.13;;;;;;;;;;5144066;27;20195;-48
2022/06/18 11:55:39;;;;;;;3.05;2.17;;;;;;;;;;5133891;27;20213;-52
2022/06/18 11:58:17;;;;;;;3.45;2.03;;;;;;;;;;5136940;27;20209;-48
2022/06/18 12:00:57;;;;;;;5.13;2.22;;;;;;;;;;5143455;27;20189;-49
2022/06/18 12:03:39;;;;;;;7.18;2.20;;;;;;;;;;5134761;27;20189;-48
2022/06/18 12:06:41;;;;;;;3.78;2.05;;;;;;;;;;5136456;27;20196;-49
2022/06/18 12:09:28;;;;;;;5.10;2.15;;;;;;;;;;5135488;27;20218;-51
2022/06/18 12:12:11;;;;;;;6.95;2.45;;;;;;;;;;5119622;27;20528;-47
2022/06/18 12:15:02;;;;;;;4.75;2.15;;;;;;;;;;5134753;27;20223;-50
2022/06/18 12:17:36;;;;;;;7.88;2.22;;;;;;;;;;5135437;27;20186;-53
2022/06/18 12:20:40;;;;;;;5.00;2.10;;;;;;;;;;5135276;27;20507;-53
2022/06/18 12:23:17;;;;;;;4.03;2.25;;;;;;;;;;5135679;27;20177;-51
2022/06/18 12:26:37;;;;;;;11.45;2.17;;;;;;;;;;5135260;27;20185;-54
2022/06/18 12:29:10;;;;;;;13.38;2.38;;;;;;;;;;5071555;28;20219;-53
2022/06/18 12:31:59;;;;;;;4.90;2.08;;;;;;;;;;5070733;28;20199;-59
2022/06/18 12:34:40;;;;;;;5.78;2.33;;;;;;;;;;5073902;28;20257;-57
2022/06/18 12:37:24;;;;;;;5.10;2.15;;;;;;;;;;5056027;28;20184;-53
2022/06/18 12:40:13;;;;;;;6.38;2.10;;;;;;;;;;5075705;28;20293;-51
2022/06/18 12:42:50;;;;;;;5.25;1.83;;;;;;;;;;5074755;28;20300;-58
2022/06/18 12:45:28;;;;;;;3.83;2.00;;;;;;;;;;5075297;28;20218;-58
2022/06/18 12:48:35;;;;;;;4.30;1.75;;;;;;;;;;5058172;28;20662;-56
2022/06/18 12:51:10;;;;;;;3.95;1.83;;;;;;;;;;4995572;28;20682;-49
2022/06/18 12:53:52;;;;;;;6.35;1.98;;;;;;;;;;5052302;28;20203;-48
2022/06/18 12:56:57;;;;;;;3.55;1.77;;;;;;;;;;5074907;28;20191;-63
2022/06/18 12:59:48;;;;;;;3.03;1.75;;;;;;;;;;5074739;28;20195;-53
2022/06/18 13:02:20;;;;;;;3.35;2.00;;;;;;;;;;5074738;28;20628;-57
2022/06/18 13:04:51;;;;;;;3.83;1.90;;;;;;;;;;5071937;27;20206;-57
2022/06/18 13:07:33;;;;;;;4.88;1.77;;;;;;;;;;5137804;27;20204;-58
2022/06/18 13:10:13;;;;;;;5.40;1.88;;;;;;;;;;5137418;27;20201;-47
2022/06/18 13:12:49;;;;;;;3.63;1.90;;;;;;;;;;5136716;27;20192;-58
2022/06/18 13:15:37;;;;;;;6.43;1.80;;;;;;;;;;5137268;27;20197;-49
2022/06/18 13:18:11;;;;;;;5.28;1.88;;;;;;;;;;5119972;27;20186;-48
2022/06/18 13:20:40;;;;;;;5.03;2.05;;;;;;;;;;5136426;27;20196;-51
2022/06/18 13:28:48;;;;;;;6.97;2.05;;;;;;;;;;5136172;27;20262;-57
2022/06/18 13:31:25;;;;;;;10.68;2.00;;;;;;;;;;5133275;27;20189;-53
2022/06/18 13:34:03;;;;;;;3.45;1.70;;;;;;;;;;5132425;27;20177;-53
2022/06/18 13:36:36;;;;;;;5.63;1.63;;;;;;;;;;5132527;27;20225;-48
2022/06/18 13:39:15;;;;;;;3.53;1.75;;;;;;;;;;5135661;27;20322;-48
2022/06/18 13:41:42;;;;;;;3.65;1.67;;;;;;;;;;5135234;27;20243;-49
2022/06/18 13:44:12;;;;;;;29.15;3.47;;;;;;;;;;5136162;27;20281;-50
2022/06/18 13:46:42;;;;;;;3.03;1.73;;;;;;;;;;5135895;27;20304;-48
2022/06/18 13:49:10;;;;;;;5.18;1.90;;;;;;;;;;5136143;27;20229;-49
2022/06/18 13:51:39;;;;;;;5.45;1.48;;;;;;;;;;5135786;27;20229;-51
2022/06/18 13:54:13;;;;;;;4.93;1.65;;;;;;;;;;5132105;27;20221;-51
2022/06/18 13:56:54;;;;;;;3.95;2.00;;;;;;;;;;5124206;27;20664;-49
2022/06/18 13:59:22;;;;;;;5.22;1.75;;;;;;;;;;5115093;28;20193;-49
2022/06/18 14:01:56;;;;;;;6.90;1.50;;;;;;;;;;5116490;27;20631;-56
2022/06/18 14:04:34;;;;;;;2.92;1.42;;;;;;;;;;5131725;27;20236;-50
2022/06/18 14:07:05;;;;;;;5.38;1.70;;;;;;;;;;5135934;27;20661;-49
2022/06/18 14:09:45;;;;;;;5.45;1.50;;;;;;;;;;5134579;27;20243;-52
2022/06/18 14:12:16;;;;;;;7.93;2.15;;;;;;;;;;5135609;27;20224;-48
2022/06/18 14:14:43;;;;;;;4.82;1.80;;;;;;;;;;5134534;27;20220;-49
2022/06/18 14:17:14;;;;;;;3.80;1.75;;;;;;;;;;5132567;27;20256;-56
2022/06/18 14:19:44;;;;;;;3.25;1.77;;;;;;;;;;5134224;27;20217;-46
2022/06/18 14:22:17;;;;;;;7.68;2.10;;;;;;;;;;5134317;27;20248;-49
2022/06/18 14:24:49;;;;;;;3.50;1.65;;;;;;;;;;5134952;27;20232;-52
2022/06/18 14:27:46;;;;;;;3.25;1.50;;;;;;;;;;5135029;27;20675;-52
2022/06/18 14:30:42;;;;;;;4.43;1.55;;;;;;;;;;5134810;27;20270;-50
2022/06/18 14:33:23;;;;;;;6.80;2.30;;;;;;;;;;5114804;27;20563;-57
2022/06/18 14:36:20;;;;;;;4.65;1.75;;;;;;;;;;5125858;27;20235;-57
2022/06/18 14:38:49;;;;;;;4.82;2.30;;;;;;;;;;5107565;27;20710;-58
2022/06/18 14:41:37;;;;;;;2.55;1.73;;;;;;;;;;5120402;27;20233;-61
2022/06/18 14:44:30;;;;;;;3.25;1.70;;;;;;;;;;5134039;27;20661;-57
2022/06/18 14:47:34;;;;;;;3.42;1.80;;;;;;;;;;5118862;27;20228;-56
2022/06/18 14:50:16;;;;;;;4.15;1.88;;;;;;;;;;5123128;28;20704;-50
2022/06/18 14:52:56;;;;;;;4.97;1.65;;;;;;;;;;5134055;27;20233;-48
2022/06/18 14:55:29;;;;;;;3.53;1.65;;;;;;;;;;5129126;27;20248;-54
2022/06/18 14:58:20;;;;;;;4.40;1.73;;;;;;;;;;5127818;27;20225;-57
2022/06/18 15:01:25;;;;;;;4.32;1.67;;;;;;;;;;5134670;27;20221;-50
2022/06/18 15:04:11;;;;;;;6.03;1.75;;;;;;;;;;5134253;27;20221;-54
2022/06/18 15:06:38;;;;;;;2.60;1.83;;;;;;;;;;5134613;28;20232;-54
2022/06/18 15:09:07;;;;;;;5.85;1.92;;;;;;;;;;5134481;27;20237;-53
2022/06/18 15:11:46;;;;;;;3.95;2.22;;;;;;;;;;5135193;27;20221;-55
2022/06/18 15:14:21;;;;;;;7.45;2.10;;;;;;;;;;5134629;27;20217;-51
2022/06/18 15:19:36;;;;;;;4.20;1.83;;;;;;;;;;5133894;27;20221;-52
2022/06/18 15:22:13;;;;;;;4.82;2.38;;;;;;;;;;5135044;27;20246;-56
2022/06/18 15:27:32;;;;;;;5.75;1.77;;;;;;;;;;5132304;28;20225;-47
2022/06/18 15:30:03;;;;;;;8.35;2.00;;;;;;;;;;5143386;27;20693;-58
2022/06/18 15:32:31;;;;;;;4.50;1.58;;;;;;;;;;5155880;27;20224;-57
2022/06/18 15:35:03;;;;;;;3.40;1.73;;;;;;;;;;5154845;27;20298;-55
2022/06/18 15:37:31;;;;;;;7.25;1.80;;;;;;;;;;5154922;27;20189;-58
2022/06/18 15:39:59;;;;;;;4.47;1.83;;;;;;;;;;5155114;27;20260;-59
2022/06/18 15:42:43;;;;;;;6.45;1.80;;;;;;;;;;5154880;27;20271;-59
2022/06/18 15:45:19;;;;;;;4.72;1.70;;;;;;;;;;5154120;27;20644;-58
2022/06/18 15:47:48;;;;;;;2.75;1.63;;;;;;;;;;5155390;27;20292;-57
2022/06/18 15:50:25;;;;;;;3.75;1.70;;;;;;;;;;5154404;27;20667;-59
2022/06/18 15:52:53;;;;;;;4.28;1.58;;;;;;;;;;5156799;27;20195;-58